sensor_id;sensor_type;location;lat;lon;timestamp;P1;durP1;ratioP1;P2;durP2;ratioP2
40022;SDS011;25713;-35.352;149.036;2023-12-14T00:00:21;3.17;;;2.25;;
40022;SDS011;25713;-35.352;149.036;2023-12-14T00:02:51;3.33;;;2.10;;
40022;SDS011;25713;-35.352;149.036;2023-12-14T00:05:24;2.50;;;2.30;;
40022;SDS011;25713;-35.352;149.036;2023-12-14T00:07:54;2.85;;;2.10;;
40022;SDS011;25713;-35.352;149.036;2023-12-14T00:10:23;5.28;;;2.15;;
40022;SDS011;25713;-35.352;149.036;2023-12-14T00:12:52;6.28;;;2.00;;
40022;SDS011;25713;-35.352;149.036;2023-12-14T00:15:24;2.90;;;2.30;;
40022;SDS011;25713;-35.352;149.036;2023-12-14T00:17:54;4.30;;;2.17;;
40022;SDS011;25713;-35.352;149.036;2023-12-14T00:20:23;2.90;;;2.17;;
40022;SDS011;25713;-35.352;149.036;2023-12-14T00:22:52;4.32;;;2.03;;
40022;SDS011;25713;-35.352;149.036;2023-12-14T00:25:22;2.47;;;2.10;;
40022;SDS011;25713;-35.352;149.036;2023-12-14T00:27:51;2.00;;;1.80;;
40022;SDS011;25713;-35.352;149.036;2023-12-14T00:30:21;4.38;;;2.20;;
40022;SDS011;25713;-35.352;149.036;2023-12-14T00:32:54;2.70;;;1.80;;
40022;SDS011;25713;-35.352;149.036;2023-12-14T00:35:23;3.75;;;2.10;;
40022;SDS011;25713;-35.352;149.036;2023-12-14T00:37:53;3.95;;;1.70;;
40022;SDS011;25713;-35.352;149.036;2023-12-14T00:40:22;3.30;;;1.73;;
40022;SDS011;25713;-35.352;149.036;2023-12-14T00:42:52;4.30;;;2.00;;
40022;SDS011;25713;-35.352;149.036;2023-12-14T00:45:22;3.45;;;2.08;;
40022;SDS011;25713;-35.352;149.036;2023-12-14T00:47:53;3.58;;;1.90;;
40022;SDS011;25713;-35.352;149.036;2023-12-14T00:50:22;6.15;;;1.88;;
40022;SDS011;25713;-35.352;149.036;2023-12-14T00:52:52;2.35;;;1.70;;
40022;SDS011;25713;-35.352;149.036;2023-12-14T00:55:21;3.88;;;1.80;;
40022;SDS011;25713;-35.352;149.036;2023-12-14T00:57:51;2.33;;;1.90;;
40022;SDS011;25713;-35.352;149.036;2023-12-14T01:00:20;2.70;;;1.70;;
40022;SDS011;25713;-35.352;149.036;2023-12-14T01:02:53;5.65;;;1.80;;
40022;SDS011;25713;-35.352;149.036;2023-12-14T01:05:23;3.47;;;1.50;;
40022;SDS011;25713;-35.352;149.036;2023-12-14T01:07:52;3.20;;;1.73;;
40022;SDS011;25713;-35.352;149.036;2023-12-14T01:10:22;2.30;;;1.60;;
40022;SDS011;25713;-35.352;149.036;2023-12-14T01:12:51;3.28;;;2.08;;
40022;SDS011;25713;-35.352;149.036;2023-12-14T01:15:20;5.05;;;1.67;;
40022;SDS011;25713;-35.352;149.036;2023-12-14T01:17:56;2.28;;;1.60;;
40022;SDS011;25713;-35.352;149.036;2023-12-14T01:20:25;3.00;;;1.80;;
40022;SDS011;25713;-35.352;149.036;2023-12-14T01:22:55;3.15;;;1.50;;
40022;SDS011;25713;-35.352;149.036;2023-12-14T01:25:24;5.25;;;1.40;;
40022;SDS011;25713;-35.352;149.036;2023-12-14T01:27:54;3.10;;;1.30;;
40022;SDS011;25713;-35.352;149.036;2023-12-14T01:30:23;1.65;;;1.38;;
40022;SDS011;25713;-35.352;149.036;2023-12-14T01:32:56;4.75;;;1.70;;
40022;SDS011;25713;-35.352;149.036;2023-12-14T01:35:25;1.58;;;1.35;;
40022;SDS011;25713;-35.352;149.036;2023-12-14T01:37:55;3.13;;;1.33;;
40022;SDS011;25713;-35.352;149.036;2023-12-14T01:40:24;3.80;;;1.55;;
40022;SDS011;25713;-35.352;149.036;2023-12-14T01:42:59;1.42;;;1.15;;
40022;SDS011;25713;-35.352;149.036;2023-12-14T01:45:35;2.08;;;1.30;;
40022;SDS011;25713;-35.352;149.036;2023-12-14T01:48:08;2.03;;;1.40;;
40022;SDS011;25713;-35.352;149.036;2023-12-14T01:50:38;2.92;;;1.20;;
40022;SDS011;25713;-35.352;149.036;2023-12-14T01:53:07;1.88;;;1.20;;
40022;SDS011;25713;-35.352;149.036;2023-12-14T01:55:36;2.60;;;1.10;;
40022;SDS011;25713;-35.352;149.036;2023-12-14T01:58:06;3.22;;;1.20;;
40022;SDS011;25713;-35.352;149.036;2023-12-14T02:00:36;2.10;;;1.20;;
40022;SDS011;25713;-35.352;149.036;2023-12-14T02:03:14;2.55;;;1.20;;
40022;SDS011;25713;-35.352;149.036;2023-12-14T02:05:44;3.97;;;1.30;;
40022;SDS011;25713;-35.352;149.036;2023-12-14T02:08:13;4.30;;;1.23;;
40022;SDS011;25713;-35.352;149.036;2023-12-14T02:10:43;3.22;;;1.20;;
40022;SDS011;25713;-35.352;149.036;2023-12-14T02:13:12;4.88;;;1.20;;
40022;SDS011;25713;-35.352;149.036;2023-12-14T02:15:42;1.75;;;0.90;;
40022;SDS011;25713;-35.352;149.036;2023-12-14T02:18:15;1.45;;;1.10;;
40022;SDS011;25713;-35.352;149.036;2023-12-14T02:20:44;3.00;;;1.08;;
40022;SDS011;25713;-35.352;149.036;2023-12-14T02:23:18;2.13;;;0.93;;
40022;SDS011;25713;-35.352;149.036;2023-12-14T02:25:48;2.13;;;0.80;;
40022;SDS011;25713;-35.352;149.036;2023-12-14T02:28:17;1.15;;;0.90;;
40022;SDS011;25713;-35.352;149.036;2023-12-14T02:30:46;5.85;;;1.00;;
40022;SDS011;25713;-35.352;149.036;2023-12-14T02:33:16;0.68;;;0.68;;
40022;SDS011;25713;-35.352;149.036;2023-12-14T02:35:45;3.40;;;1.05;;
40022;SDS011;25713;-35.352;149.036;2023-12-14T02:38:18;1.08;;;0.80;;
40022;SDS011;25713;-35.352;149.036;2023-12-14T02:40:47;3.20;;;0.80;;
40022;SDS011;25713;-35.352;149.036;2023-12-14T02:43:17;1.95;;;0.80;;
40022;SDS011;25713;-35.352;149.036;2023-12-14T02:45:46;0.93;;;0.70;;
40022;SDS011;25713;-35.352;149.036;2023-12-14T02:48:16;1.38;;;0.80;;
40022;SDS011;25713;-35.352;149.036;2023-12-14T02:50:45;3.25;;;0.90;;
40022;SDS011;25713;-35.352;149.036;2023-12-14T02:53:18;1.00;;;0.70;;
40022;SDS011;25713;-35.352;149.036;2023-12-14T02:55:48;0.90;;;0.80;;
40022;SDS011;25713;-35.352;149.036;2023-12-14T02:58:18;2.72;;;0.80;;
40022;SDS011;25713;-35.352;149.036;2023-12-14T03:00:48;0.70;;;0.60;;
40022;SDS011;25713;-35.352;149.036;2023-12-14T03:03:17;2.83;;;0.70;;
40022;SDS011;25713;-35.352;149.036;2023-12-14T03:05:47;1.13;;;0.70;;
40022;SDS011;25713;-35.352;149.036;2023-12-14T03:08:20;3.65;;;0.80;;
40022;SDS011;25713;-35.352;149.036;2023-12-14T03:10:50;1.05;;;0.70;;
40022;SDS011;25713;-35.352;149.036;2023-12-14T03:13:19;1.98;;;0.60;;
40022;SDS011;25713;-35.352;149.036;2023-12-14T03:15:49;3.20;;;0.60;;
40022;SDS011;25713;-35.352;149.036;2023-12-14T03:18:18;1.27;;;0.60;;
40022;SDS011;25713;-35.352;149.036;2023-12-14T03:20:48;0.60;;;0.60;;
40022;SDS011;25713;-35.352;149.036;2023-12-14T03:23:19;0.68;;;0.50;;
40022;SDS011;25713;-35.352;149.036;2023-12-14T03:28:17;1.67;;;0.60;;
40022;SDS011;25713;-35.352;149.036;2023-12-14T03:30:48;0.68;;;0.63;;
40022;SDS011;25713;-35.352;149.036;2023-12-14T03:33:18;3.00;;;0.80;;
40022;SDS011;25713;-35.352;149.036;2023-12-14T03:35:48;2.45;;;0.70;;
40022;SDS011;25713;-35.352;149.036;2023-12-14T03:38:20;1.27;;;0.70;;
40022;SDS011;25713;-35.352;149.036;2023-12-14T03:40:50;3.15;;;0.68;;
40022;SDS011;25713;-35.352;149.036;2023-12-14T03:43:20;0.88;;;0.70;;
40022;SDS011;25713;-35.352;149.036;2023-12-14T03:45:49;0.82;;;0.60;;
40022;SDS011;25713;-35.352;149.036;2023-12-14T03:48:19;2.17;;;0.50;;
40022;SDS011;25713;-35.352;149.036;2023-12-14T03:50:48;2.05;;;0.70;;
40022;SDS011;25713;-35.352;149.036;2023-12-14T03:53:21;0.95;;;0.60;;
40022;SDS011;25713;-35.352;149.036;2023-12-14T03:55:51;3.22;;;0.50;;
40022;SDS011;25713;-35.352;149.036;2023-12-14T03:58:20;0.88;;;0.50;;
40022;SDS011;25713;-35.352;149.036;2023-12-14T04:00:49;2.15;;;0.60;;
40022;SDS011;25713;-35.352;149.036;2023-12-14T04:03:19;1.23;;;0.40;;
40022;SDS011;25713;-35.352;149.036;2023-12-14T04:05:49;3.83;;;0.68;;
40022;SDS011;25713;-35.352;149.036;2023-12-14T04:08:22;0.45;;;0.40;;
40022;SDS011;25713;-35.352;149.036;2023-12-14T04:10:52;0.82;;;0.40;;
40022;SDS011;25713;-35.352;149.036;2023-12-14T04:13:22;0.55;;;0.43;;
40022;SDS011;25713;-35.352;149.036;2023-12-14T04:15:52;1.25;;;0.52;;
40022;SDS011;25713;-35.352;149.036;2023-12-14T04:18:21;0.68;;;0.40;;
40022;SDS011;25713;-35.352;149.036;2023-12-14T04:20:51;1.27;;;0.40;;
40022;SDS011;25713;-35.352;149.036;2023-12-14T04:23:23;1.75;;;0.43;;
40022;SDS011;25713;-35.352;149.036;2023-12-14T04:25:54;2.00;;;0.40;;
40022;SDS011;25713;-35.352;149.036;2023-12-14T04:28:23;0.40;;;0.38;;
40022;SDS011;25713;-35.352;149.036;2023-12-14T04:30:53;0.70;;;0.40;;
40022;SDS011;25713;-35.352;149.036;2023-12-14T04:33:22;1.52;;;0.40;;
40022;SDS011;25713;-35.352;149.036;2023-12-14T04:35:52;2.17;;;0.50;;
40022;SDS011;25713;-35.352;149.036;2023-12-14T04:38:25;0.65;;;0.40;;
40022;SDS011;25713;-35.352;149.036;2023-12-14T04:40:54;0.73;;;0.40;;
40022;SDS011;25713;-35.352;149.036;2023-12-14T04:43:24;1.65;;;0.50;;
40022;SDS011;25713;-35.352;149.036;2023-12-14T04:45:53;0.68;;;0.30;;
40022;SDS011;25713;-35.352;149.036;2023-12-14T04:48:23;1.70;;;0.47;;
40022;SDS011;25713;-35.352;149.036;2023-12-14T04:50:52;2.58;;;0.40;;
40022;SDS011;25713;-35.352;149.036;2023-12-14T04:53:23;1.30;;;0.50;;
40022;SDS011;25713;-35.352;149.036;2023-12-14T04:55:53;1.02;;;0.60;;
40022;SDS011;25713;-35.352;149.036;2023-12-14T04:58:22;0.82;;;0.40;;
40022;SDS011;25713;-35.352;149.036;2023-12-14T05:00:52;0.40;;;0.30;;
40022;SDS011;25713;-35.352;149.036;2023-12-14T05:03:22;0.43;;;0.40;;
40022;SDS011;25713;-35.352;149.036;2023-12-14T05:05:51;0.45;;;0.40;;
40022;SDS011;25713;-35.352;149.036;2023-12-14T05:08:21;0.43;;;0.43;;
40022;SDS011;25713;-35.352;149.036;2023-12-14T05:10:56;0.85;;;0.57;;
40022;SDS011;25713;-35.352;149.036;2023-12-14T05:13:26;2.03;;;0.40;;
40022;SDS011;25713;-35.352;149.036;2023-12-14T05:15:55;1.88;;;0.60;;
40022;SDS011;25713;-35.352;149.036;2023-12-14T05:18:25;1.80;;;0.50;;
40022;SDS011;25713;-35.352;149.036;2023-12-14T05:20:54;1.20;;;0.50;;
40022;SDS011;25713;-35.352;149.036;2023-12-14T05:23:27;1.13;;;0.50;;
40022;SDS011;25713;-35.352;149.036;2023-12-14T05:25:57;1.23;;;0.47;;
40022;SDS011;25713;-35.352;149.036;2023-12-14T05:28:26;0.80;;;0.43;;
40022;SDS011;25713;-35.352;149.036;2023-12-14T05:30:56;0.40;;;0.40;;
40022;SDS011;25713;-35.352;149.036;2023-12-14T05:33:26;0.63;;;0.50;;
40022;SDS011;25713;-35.352;149.036;2023-12-14T05:35:56;0.73;;;0.43;;
40022;SDS011;25713;-35.352;149.036;2023-12-14T05:38:28;2.22;;;0.40;;
40022;SDS011;25713;-35.352;149.036;2023-12-14T05:40:58;0.40;;;0.40;;
40022;SDS011;25713;-35.352;149.036;2023-12-14T05:43:28;0.40;;;0.30;;
40022;SDS011;25713;-35.352;149.036;2023-12-14T05:45:58;1.05;;;0.40;;
40022;SDS011;25713;-35.352;149.036;2023-12-14T05:48:27;2.35;;;0.40;;
40022;SDS011;25713;-35.352;149.036;2023-12-14T05:50:57;0.65;;;0.47;;
40022;SDS011;25713;-35.352;149.036;2023-12-14T05:53:30;0.80;;;0.63;;
40022;SDS011;25713;-35.352;149.036;2023-12-14T05:56:00;0.63;;;0.30;;
40022;SDS011;25713;-35.352;149.036;2023-12-14T05:58:30;0.40;;;0.30;;
40022;SDS011;25713;-35.352;149.036;2023-12-14T06:00:59;1.05;;;0.40;;
40022;SDS011;25713;-35.352;149.036;2023-12-14T06:03:29;1.13;;;0.30;;
40022;SDS011;25713;-35.352;149.036;2023-12-14T06:05:58;0.47;;;0.40;;
40022;SDS011;25713;-35.352;149.036;2023-12-14T06:08:30;1.02;;;0.40;;
40022;SDS011;25713;-35.352;149.036;2023-12-14T06:10:59;0.50;;;0.30;;
40022;SDS011;25713;-35.352;149.036;2023-12-14T06:13:29;1.05;;;0.63;;
40022;SDS011;25713;-35.352;149.036;2023-12-14T06:15:58;1.42;;;0.40;;
40022;SDS011;25713;-35.352;149.036;2023-12-14T06:18:28;1.42;;;0.43;;
40022;SDS011;25713;-35.352;149.036;2023-12-14T06:20:58;0.35;;;0.35;;
40022;SDS011;25713;-35.352;149.036;2023-12-14T06:23:31;0.40;;;0.30;;
40022;SDS011;25713;-35.352;149.036;2023-12-14T06:26:02;0.40;;;0.30;;
40022;SDS011;25713;-35.352;149.036;2023-12-14T06:28:32;0.98;;;0.40;;
40022;SDS011;25713;-35.352;149.036;2023-12-14T06:31:02;0.50;;;0.40;;
40022;SDS011;25713;-35.352;149.036;2023-12-14T06:33:31;0.40;;;0.40;;
40022;SDS011;25713;-35.352;149.036;2023-12-14T06:36:03;0.60;;;0.40;;
40022;SDS011;25713;-35.352;149.036;2023-12-14T06:38:36;0.57;;;0.43;;
40022;SDS011;25713;-35.352;149.036;2023-12-14T06:41:07;0.70;;;0.40;;
40022;SDS011;25713;-35.352;149.036;2023-12-14T06:43:45;1.75;;;0.50;;
40022;SDS011;25713;-35.352;149.036;2023-12-14T06:46:15;1.15;;;0.40;;
40022;SDS011;25713;-35.352;149.036;2023-12-14T06:48:48;2.42;;;0.65;;
40022;SDS011;25713;-35.352;149.036;2023-12-14T06:51:18;1.13;;;0.60;;
40022;SDS011;25713;-35.352;149.036;2023-12-14T06:53:51;0.52;;;0.38;;
40022;SDS011;25713;-35.352;149.036;2023-12-14T06:56:20;4.63;;;0.40;;
40022;SDS011;25713;-35.352;149.036;2023-12-14T06:58:50;1.33;;;0.38;;
40022;SDS011;25713;-35.352;149.036;2023-12-14T07:01:19;1.77;;;0.40;;
40022;SDS011;25713;-35.352;149.036;2023-12-14T07:03:49;1.45;;;0.30;;
40022;SDS011;25713;-35.352;149.036;2023-12-14T07:06:19;0.40;;;0.40;;
40022;SDS011;25713;-35.352;149.036;2023-12-14T07:08:52;1.15;;;0.40;;
40022;SDS011;25713;-35.352;149.036;2023-12-14T07:11:21;0.43;;;0.40;;
40022;SDS011;25713;-35.352;149.036;2023-12-14T07:13:51;0.90;;;0.40;;
40022;SDS011;25713;-35.352;149.036;2023-12-14T07:16:20;0.40;;;0.40;;
40022;SDS011;25713;-35.352;149.036;2023-12-14T07:18:50;1.17;;;0.40;;
40022;SDS011;25713;-35.352;149.036;2023-12-14T07:21:19;1.40;;;0.30;;
40022;SDS011;25713;-35.352;149.036;2023-12-14T07:23:52;2.05;;;0.45;;
40022;SDS011;25713;-35.352;149.036;2023-12-14T07:26:21;2.65;;;0.40;;
40022;SDS011;25713;-35.352;149.036;2023-12-14T07:28:52;0.57;;;0.40;;
40022;SDS011;25713;-35.352;149.036;2023-12-14T07:31:22;0.90;;;0.40;;
40022;SDS011;25713;-35.352;149.036;2023-12-14T07:33:51;1.02;;;0.50;;
40022;SDS011;25713;-35.352;149.036;2023-12-14T07:36:21;1.48;;;0.30;;
40022;SDS011;25713;-35.352;149.036;2023-12-14T07:38:52;0.68;;;0.35;;
40022;SDS011;25713;-35.352;149.036;2023-12-14T07:41:22;0.57;;;0.30;;
40022;SDS011;25713;-35.352;149.036;2023-12-14T07:43:52;0.63;;;0.40;;
40022;SDS011;25713;-35.352;149.036;2023-12-14T07:46:21;1.58;;;0.55;;
40022;SDS011;25713;-35.352;149.036;2023-12-14T07:48:51;1.48;;;0.43;;
40022;SDS011;25713;-35.352;149.036;2023-12-14T07:51:21;1.33;;;0.38;;
40022;SDS011;25713;-35.352;149.036;2023-12-14T07:53:50;1.58;;;0.40;;
40022;SDS011;25713;-35.352;149.036;2023-12-14T07:56:24;0.60;;;0.40;;
40022;SDS011;25713;-35.352;149.036;2023-12-14T07:58:53;0.85;;;0.50;;
40022;SDS011;25713;-35.352;149.036;2023-12-14T08:01:23;0.90;;;0.50;;
40022;SDS011;25713;-35.352;149.036;2023-12-14T08:03:52;0.47;;;0.38;;
40022;SDS011;25713;-35.352;149.036;2023-12-14T08:06:22;1.08;;;0.47;;
40022;SDS011;25713;-35.352;149.036;2023-12-14T08:08:51;1.52;;;0.40;;
40022;SDS011;25713;-35.352;149.036;2023-12-14T08:11:22;0.40;;;0.40;;
40022;SDS011;25713;-35.352;149.036;2023-12-14T08:13:52;0.93;;;0.52;;
40022;SDS011;25713;-35.352;149.036;2023-12-14T08:16:21;1.48;;;0.57;;
40022;SDS011;25713;-35.352;149.036;2023-12-14T08:18:51;0.73;;;0.40;;
40022;SDS011;25713;-35.352;149.036;2023-12-14T08:21:20;1.13;;;0.70;;
40022;SDS011;25713;-35.352;149.036;2023-12-14T08:23:51;3.08;;;0.43;;
40022;SDS011;25713;-35.352;149.036;2023-12-14T08:26:23;1.13;;;0.52;;
40022;SDS011;25713;-35.352;149.036;2023-12-14T08:28:53;1.15;;;0.50;;
40022;SDS011;25713;-35.352;149.036;2023-12-14T08:31:22;2.03;;;0.40;;
40022;SDS011;25713;-35.352;149.036;2023-12-14T08:33:52;0.60;;;0.40;;
40022;SDS011;25713;-35.352;149.036;2023-12-14T08:36:22;0.40;;;0.40;;
40022;SDS011;25713;-35.352;149.036;2023-12-14T08:38:52;0.50;;;0.43;;
40022;SDS011;25713;-35.352;149.036;2023-12-14T08:41:25;2.58;;;0.50;;
40022;SDS011;25713;-35.352;149.036;2023-12-14T08:43:54;1.23;;;0.50;;
40022;SDS011;25713;-35.352;149.036;2023-12-14T08:46:24;1.42;;;0.60;;
40022;SDS011;25713;-35.352;149.036;2023-12-14T08:48:53;3.03;;;0.55;;
40022;SDS011;25713;-35.352;149.036;2023-12-14T08:51:23;1.50;;;0.40;;
40022;SDS011;25713;-35.352;149.036;2023-12-14T08:53:52;0.85;;;0.47;;
40022;SDS011;25713;-35.352;149.036;2023-12-14T08:56:23;1.23;;;0.50;;
40022;SDS011;25713;-35.352;149.036;2023-12-14T08:58:53;0.50;;;0.40;;
40022;SDS011;25713;-35.352;149.036;2023-12-14T09:01:23;0.60;;;0.50;;
40022;SDS011;25713;-35.352;149.036;2023-12-14T09:03:52;0.40;;;0.38;;
40022;SDS011;25713;-35.352;149.036;2023-12-14T09:06:21;0.95;;;0.50;;
40022;SDS011;25713;-35.352;149.036;2023-12-14T09:08:51;1.17;;;0.50;;
40022;SDS011;25713;-35.352;149.036;2023-12-14T09:11:22;0.73;;;0.50;;
40022;SDS011;25713;-35.352;149.036;2023-12-14T09:13:52;3.72;;;0.60;;
40022;SDS011;25713;-35.352;149.036;2023-12-14T09:16:22;0.73;;;0.40;;
40022;SDS011;25713;-35.352;149.036;2023-12-14T09:18:51;1.17;;;0.50;;
40022;SDS011;25713;-35.352;149.036;2023-12-14T09:21:20;0.70;;;0.50;;
40022;SDS011;25713;-35.352;149.036;2023-12-14T09:23:50;1.98;;;0.50;;
40022;SDS011;25713;-35.352;149.036;2023-12-14T09:26:19;0.82;;;0.57;;
40022;SDS011;25713;-35.352;149.036;2023-12-14T09:28:51;1.17;;;0.50;;
40022;SDS011;25713;-35.352;149.036;2023-12-14T09:31:20;0.82;;;0.50;;
40022;SDS011;25713;-35.352;149.036;2023-12-14T09:33:50;0.57;;;0.32;;
40022;SDS011;25713;-35.352;149.036;2023-12-14T09:36:20;0.50;;;0.50;;
40022;SDS011;25713;-35.352;149.036;2023-12-14T09:38:50;1.05;;;0.50;;
40022;SDS011;25713;-35.352;149.036;2023-12-14T09:41:20;2.30;;;0.55;;
40022;SDS011;25713;-35.352;149.036;2023-12-14T09:43:51;2.63;;;0.50;;
40022;SDS011;25713;-35.352;149.036;2023-12-14T09:46:21;0.35;;;0.35;;
40022;SDS011;25713;-35.352;149.036;2023-12-14T09:48:51;2.10;;;0.57;;
40022;SDS011;25713;-35.352;149.036;2023-12-14T09:51:23;2.67;;;0.60;;
40022;SDS011;25713;-35.352;149.036;2023-12-14T09:53:53;6.25;;;0.70;;
40022;SDS011;25713;-35.352;149.036;2023-12-14T09:56:27;0.95;;;0.40;;
40022;SDS011;25713;-35.352;149.036;2023-12-14T09:58:57;1.55;;;0.70;;
40022;SDS011;25713;-35.352;149.036;2023-12-14T10:01:27;1.23;;;0.50;;
40022;SDS011;25713;-35.352;149.036;2023-12-14T10:04:10;2.00;;;0.57;;
40022;SDS011;25713;-35.352;149.036;2023-12-14T10:06:41;3.67;;;0.43;;
40022;SDS011;25713;-35.352;149.036;2023-12-14T10:09:11;0.50;;;0.40;;
40022;SDS011;25713;-35.352;149.036;2023-12-14T10:11:43;1.08;;;0.40;;
40022;SDS011;25713;-35.352;149.036;2023-12-14T10:14:20;2.60;;;0.40;;
40022;SDS011;25713;-35.352;149.036;2023-12-14T10:16:51;1.70;;;0.50;;
40022;SDS011;25713;-35.352;149.036;2023-12-14T10:19:20;1.27;;;0.50;;
40022;SDS011;25713;-35.352;149.036;2023-12-14T10:21:50;1.42;;;0.60;;
40022;SDS011;25713;-35.352;149.036;2023-12-14T10:24:19;1.88;;;0.60;;
40022;SDS011;25713;-35.352;149.036;2023-12-14T10:26:53;0.95;;;0.50;;
40022;SDS011;25713;-35.352;149.036;2023-12-14T10:29:24;1.38;;;0.40;;
40022;SDS011;25713;-35.352;149.036;2023-12-14T10:31:53;1.83;;;0.47;;
40022;SDS011;25713;-35.352;149.036;2023-12-14T10:34:23;2.25;;;0.50;;
40022;SDS011;25713;-35.352;149.036;2023-12-14T10:36:53;0.82;;;0.47;;
40022;SDS011;25713;-35.352;149.036;2023-12-14T10:39:22;0.77;;;0.47;;
40022;SDS011;25713;-35.352;149.036;2023-12-14T10:41:55;1.25;;;0.40;;
40022;SDS011;25713;-35.352;149.036;2023-12-14T10:44:26;0.88;;;0.50;;
40022;SDS011;25713;-35.352;149.036;2023-12-14T10:46:57;2.70;;;0.60;;
40022;SDS011;25713;-35.352;149.036;2023-12-14T10:49:27;0.85;;;0.40;;
40022;SDS011;25713;-35.352;149.036;2023-12-14T10:51:58;2.10;;;0.40;;
40022;SDS011;25713;-35.352;149.036;2023-12-14T10:54:29;1.65;;;0.55;;
40022;SDS011;25713;-35.352;149.036;2023-12-14T10:57:04;2.22;;;0.47;;
40022;SDS011;25713;-35.352;149.036;2023-12-14T10:59:34;0.60;;;0.57;;
40022;SDS011;25713;-35.352;149.036;2023-12-14T11:02:07;0.70;;;0.50;;
40022;SDS011;25713;-35.352;149.036;2023-12-14T11:10:20;1.50;;;0.40;;
40022;SDS011;25713;-35.352;149.036;2023-12-14T11:12:59;1.42;;;0.47;;
40022;SDS011;25713;-35.352;149.036;2023-12-14T11:15:30;2.80;;;0.50;;
40022;SDS011;25713;-35.352;149.036;2023-12-14T11:20:53;0.63;;;0.40;;
40022;SDS011;25713;-35.352;149.036;2023-12-14T11:23:27;1.52;;;0.88;;
40022;SDS011;25713;-35.352;149.036;2023-12-14T11:25:58;0.93;;;0.50;;
40022;SDS011;25713;-35.352;149.036;2023-12-14T11:28:31;1.90;;;0.60;;
40022;SDS011;25713;-35.352;149.036;2023-12-14T11:31:01;1.75;;;0.50;;
40022;SDS011;25713;-35.352;149.036;2023-12-14T11:33:32;1.58;;;0.60;;
40022;SDS011;25713;-35.352;149.036;2023-12-14T11:36:01;0.50;;;0.50;;
40022;SDS011;25713;-35.352;149.036;2023-12-14T11:38:32;1.23;;;0.50;;
40022;SDS011;25713;-35.352;149.036;2023-12-14T11:41:02;1.85;;;0.47;;
40022;SDS011;25713;-35.352;149.036;2023-12-14T11:43:40;2.25;;;0.77;;
40022;SDS011;25713;-35.352;149.036;2023-12-14T11:46:11;3.80;;;0.60;;
40022;SDS011;25713;-35.352;149.036;2023-12-14T11:48:44;0.40;;;0.40;;
40022;SDS011;25713;-35.352;149.036;2023-12-14T11:51:13;0.80;;;0.50;;
40022;SDS011;25713;-35.352;149.036;2023-12-14T11:53:44;1.40;;;0.65;;
40022;SDS011;25713;-35.352;149.036;2023-12-14T11:56:15;2.35;;;0.50;;
40022;SDS011;25713;-35.352;149.036;2023-12-14T12:01:17;1.48;;;0.50;;
40022;SDS011;25713;-35.352;149.036;2023-12-14T12:03:47;1.08;;;0.50;;
40022;SDS011;25713;-35.352;149.036;2023-12-14T12:06:22;0.85;;;0.50;;
40022;SDS011;25713;-35.352;149.036;2023-12-14T12:08:52;1.23;;;0.50;;
40022;SDS011;25713;-35.352;149.036;2023-12-14T12:11:22;2.13;;;0.60;;
40022;SDS011;25713;-35.352;149.036;2023-12-14T12:13:55;1.25;;;0.50;;
40022;SDS011;25713;-35.352;149.036;2023-12-14T12:16:25;2.08;;;0.60;;
40022;SDS011;25713;-35.352;149.036;2023-12-14T12:18:55;0.90;;;0.60;;
40022;SDS011;25713;-35.352;149.036;2023-12-14T12:21:24;0.95;;;0.43;;
40022;SDS011;25713;-35.352;149.036;2023-12-14T12:23:54;1.35;;;0.65;;
40022;SDS011;25713;-35.352;149.036;2023-12-14T12:26:23;1.13;;;0.50;;
40022;SDS011;25713;-35.352;149.036;2023-12-14T12:28:55;2.97;;;0.50;;
40022;SDS011;25713;-35.352;149.036;2023-12-14T12:31:25;0.68;;;0.50;;
40022;SDS011;25713;-35.352;149.036;2023-12-14T12:33:54;0.73;;;0.40;;
40022;SDS011;25713;-35.352;149.036;2023-12-14T12:36:24;0.82;;;0.52;;
40022;SDS011;25713;-35.352;149.036;2023-12-14T12:38:53;0.63;;;0.50;;
40022;SDS011;25713;-35.352;149.036;2023-12-14T12:41:22;1.00;;;0.70;;
40022;SDS011;25713;-35.352;149.036;2023-12-14T12:43:52;1.02;;;0.50;;
40022;SDS011;25713;-35.352;149.036;2023-12-14T12:46:24;0.88;;;0.50;;
40022;SDS011;25713;-35.352;149.036;2023-12-14T12:48:54;2.60;;;0.70;;
40022;SDS011;25713;-35.352;149.036;2023-12-14T12:51:23;1.05;;;0.60;;
40022;SDS011;25713;-35.352;149.036;2023-12-14T12:53:55;0.70;;;0.40;;
40022;SDS011;25713;-35.352;149.036;2023-12-14T12:56:25;1.73;;;0.63;;
40022;SDS011;25713;-35.352;149.036;2023-12-14T12:58:57;1.27;;;0.60;;
40022;SDS011;25713;-35.352;149.036;2023-12-14T13:01:26;1.33;;;0.60;;
40022;SDS011;25713;-35.352;149.036;2023-12-14T13:03:56;2.88;;;0.50;;
40022;SDS011;25713;-35.352;149.036;2023-12-14T13:06:25;2.33;;;0.50;;
40022;SDS011;25713;-35.352;149.036;2023-12-14T13:08:55;1.20;;;0.50;;
40022;SDS011;25713;-35.352;149.036;2023-12-14T13:11:25;2.17;;;0.40;;
40022;SDS011;25713;-35.352;149.036;2023-12-14T13:13:54;0.77;;;0.50;;
40022;SDS011;25713;-35.352;149.036;2023-12-14T13:16:26;2.30;;;0.70;;
40022;SDS011;25713;-35.352;149.036;2023-12-14T13:18:55;3.10;;;0.68;;
40022;SDS011;25713;-35.352;149.036;2023-12-14T13:21:24;0.98;;;0.50;;
40022;SDS011;25713;-35.352;149.036;2023-12-14T13:23:54;1.10;;;0.52;;
40022;SDS011;25713;-35.352;149.036;2023-12-14T13:26:24;1.92;;;0.57;;
40022;SDS011;25713;-35.352;149.036;2023-12-14T13:28:53;1.63;;;0.50;;
40022;SDS011;25713;-35.352;149.036;2023-12-14T13:31:25;1.77;;;0.60;;
40022;SDS011;25713;-35.352;149.036;2023-12-14T13:33:54;1.80;;;0.40;;
40022;SDS011;25713;-35.352;149.036;2023-12-14T13:36:24;0.77;;;0.50;;
40022;SDS011;25713;-35.352;149.036;2023-12-14T13:38:54;1.85;;;0.60;;
40022;SDS011;25713;-35.352;149.036;2023-12-14T13:41:23;2.15;;;0.52;;
40022;SDS011;25713;-35.352;149.036;2023-12-14T13:43:52;1.40;;;0.50;;
40022;SDS011;25713;-35.352;149.036;2023-12-14T13:46:22;1.25;;;0.73;;
40022;SDS011;25713;-35.352;149.036;2023-12-14T13:48:53;1.38;;;0.55;;
40022;SDS011;25713;-35.352;149.036;2023-12-14T13:51:23;1.48;;;0.52;;
40022;SDS011;25713;-35.352;149.036;2023-12-14T13:53:53;1.35;;;0.60;;
40022;SDS011;25713;-35.352;149.036;2023-12-14T13:56:22;0.55;;;0.50;;
40022;SDS011;25713;-35.352;149.036;2023-12-14T13:58:52;1.17;;;0.50;;
40022;SDS011;25713;-35.352;149.036;2023-12-14T14:01:21;2.33;;;0.60;;
40022;SDS011;25713;-35.352;149.036;2023-12-14T14:03:52;1.02;;;0.50;;
40022;SDS011;25713;-35.352;149.036;2023-12-14T14:06:22;1.77;;;0.52;;
40022;SDS011;25713;-35.352;149.036;2023-12-14T14:08:52;2.80;;;0.70;;
40022;SDS011;25713;-35.352;149.036;2023-12-14T14:11:21;2.20;;;0.60;;
40022;SDS011;25713;-35.352;149.036;2023-12-14T14:13:51;2.47;;;0.55;;
40022;SDS011;25713;-35.352;149.036;2023-12-14T14:16:20;0.50;;;0.50;;
40022;SDS011;25713;-35.352;149.036;2023-12-14T14:18:50;1.77;;;0.68;;
40022;SDS011;25713;-35.352;149.036;2023-12-14T14:21:21;0.90;;;0.55;;
40022;SDS011;25713;-35.352;149.036;2023-12-14T14:23:51;2.15;;;0.60;;
40022;SDS011;25713;-35.352;149.036;2023-12-14T14:26:21;2.15;;;0.50;;
40022;SDS011;25713;-35.352;149.036;2023-12-14T14:28:50;0.90;;;0.60;;
40022;SDS011;25713;-35.352;149.036;2023-12-14T14:31:20;3.42;;;0.68;;
40022;SDS011;25713;-35.352;149.036;2023-12-14T14:33:50;2.03;;;0.55;;
40022;SDS011;25713;-35.352;149.036;2023-12-14T14:36:21;2.00;;;0.68;;
40022;SDS011;25713;-35.352;149.036;2023-12-14T14:38:51;0.65;;;0.50;;